Time;durP1;ratioP1;P1;durP2;ratioP2;P2;SDS_P1;SDS_P2;PMS_P1;PMS_P2;Temp;Humidity;BMP_temperature;BMP_pressure;BME280_temperature;BME280_humidity;BME280_pressure;Samples;Min_cycle;Max_cycle;Signal;HPM_P1;HPM_P2
2024/04/26 00:00:18;;;;;;;3.00;1.40;;;;;;;12.38;100.00;99830.92;107280;1259;66281;-55
2024/04/26 00:02:45;;;;;;;3.80;2.00;;;;;;;12.38;100.00;99837.72;105963;1258;72576;-56
2024/04/26 00:05:12;;;;;;;5.20;1.90;;;;;;;12.39;100.00;99840.37;109103;1256;60701;-54
2024/04/26 00:07:39;;;;;;;4.50;1.70;;;;;;;12.41;100.00;99853.96;109136;1254;60828;-53
2024/04/26 00:10:06;;;;;;;2.30;1.10;;;;;;;12.43;100.00;99858.16;109186;1254;73330;-53
2024/04/26 00:12:33;;;;;;;2.30;1.50;;;;;;;12.45;100.00;99867.42;109104;1254;65787;-54
2024/04/26 00:15:00;;;;;;;3.70;1.30;;;;;;;12.47;100.00;99874.30;109173;1255;72564;-54
2024/04/26 00:17:27;;;;;;;2.10;1.20;;;;;;;12.51;100.00;99883.63;109172;1255;59826;-53
2024/04/26 00:19:54;;;;;;;3.30;1.10;;;;;;;12.55;100.00;99893.52;109324;1254;59651;-53
2024/04/26 00:22:21;;;;;;;2.50;1.30;;;;;;;12.56;100.00;99900.30;109163;1254;74980;-54
2024/04/26 00:24:51;;;;;;;3.40;1.20;;;;;;;12.55;100.00;99900.16;109076;1254;66970;-53
2024/04/26 00:27:17;;;;;;;1.50;1.10;;;;;;;12.56;100.00;99900.85;109109;1257;71824;-53
2024/04/26 00:29:47;;;;;;;1.20;0.90;;;;;;;12.57;100.00;99905.98;106812;1267;62175;-52
2024/04/26 00:32:16;;;;;;;1.10;0.90;;;;;;;12.59;100.00;99905.91;106570;1261;62127;-53
2024/04/26 00:34:43;;;;;;;3.70;1.00;;;;;;;12.59;100.00;99917.05;106053;1269;74908;-52
2024/04/26 00:37:10;;;;;;;1.00;0.90;;;;;;;12.58;100.00;99925.56;106081;1255;65404;-53
2024/04/26 00:39:36;;;;;;;1.20;0.90;;;;;;;12.58;100.00;99927.55;106179;1260;72895;-53
2024/04/26 00:42:05;;;;;;;3.90;1.00;;;;;;;12.57;100.00;99921.84;106077;1261;61346;-53
2024/04/26 00:44:31;;;;;;;2.50;0.90;;;;;;;12.56;100.00;99928.89;106225;1258;61407;-54
2024/04/26 00:46:58;;;;;;;1.30;0.90;;;;;;;12.56;100.00;99922.98;105843;1260;74353;-52
2024/04/26 00:49:25;;;;;;;1.30;1.10;;;;;;;12.57;100.00;99916.98;106118;1260;67032;-56
2024/04/26 00:51:52;;;;;;;0.90;0.80;;;;;;;12.57;100.00;99930.86;106187;1254;73709;-54
2024/04/26 00:54:23;;;;;;;1.40;1.00;;;;;;;12.58;100.00;99933.68;105879;1270;61381;-50
2024/04/26 00:56:50;;;;;;;1.20;0.80;;;;;;;12.58;100.00;99923.60;106028;1255;61215;-53
2024/04/26 00:59:17;;;;;;;1.70;1.00;;;;;;;12.56;100.00;99911.11;106182;1276;74885;-52
2024/04/26 01:01:44;;;;;;;1.20;0.90;;;;;;;12.55;100.00;99911.16;106073;1273;67055;-54
2024/04/26 01:04:10;;;;;;;1.40;0.80;;;;;;;12.55;100.00;99913.51;105830;1260;72358;-53
2024/04/26 01:06:37;;;;;;;1.50;0.80;;;;;;;12.54;100.00;99908.16;106063;1267;62054;-56
2024/04/26 01:09:04;;;;;;;2.20;0.70;;;;;;;12.52;100.00;99901.79;106184;1261;61024;-55
2024/04/26 01:11:31;;;;;;;0.80;0.70;;;;;;;12.49;100.00;99895.45;106119;1257;74707;-54
2024/04/26 01:13:58;;;;;;;1.50;0.70;;;;;;;12.48;100.00;99892.61;106345;1260;64965;-54
2024/04/26 01:16:24;;;;;;;3.10;0.60;;;;;;;12.48;100.00;99884.16;106088;1253;72644;-53
2024/04/26 01:18:51;;;;;;;2.50;0.60;;;;;;;12.47;100.00;99877.38;106044;1267;62272;-55
2024/04/26 01:21:18;;;;;;;1.10;0.70;;;;;;;12.46;100.00;99875.08;106062;1264;62130;-55
2024/04/26 01:23:45;;;;;;;3.10;0.80;;;;;;;12.46;100.00;99883.54;105970;1264;74396;-52
2024/04/26 01:26:11;;;;;;;1.10;0.80;;;;;;;12.44;100.00;99878.42;105884;1254;67087;-53
2024/04/26 01:28:38;;;;;;;0.90;0.60;;;;;;;12.43;100.00;99870.92;106008;1260;73147;-53
2024/04/26 01:31:05;;;;;;;0.90;0.70;;;;;;;12.42;100.00;99871.52;106066;1270;61756;-53
2024/04/26 01:33:32;;;;;;;3.70;0.50;;;;;;;12.41;100.00;99862.77;106939;1254;61212;-51
2024/04/26 01:35:59;;;;;;;1.40;0.60;;;;;;;12.41;100.00;99861.73;106049;1260;74493;-56
2024/04/26 01:38:27;;;;;;;0.50;0.50;;;;;;;12.37;100.00;99862.81;106118;1258;67686;-53
2024/04/26 01:40:54;;;;;;;1.60;0.60;;;;;;;12.34;100.00;99868.02;106440;1254;72612;-53
2024/04/26 01:43:21;;;;;;;0.60;0.60;;;;;;;12.32;100.00;99866.88;106074;1257;61310;-53
2024/04/26 01:45:48;;;;;;;1.50;0.60;;;;;;;12.28;100.00;99872.10;105998;1261;61324;-53
2024/04/26 01:48:15;;;;;;;0.80;0.60;;;;;;;12.25;100.00;99872.42;105861;1260;75176;-55
2024/04/26 01:50:41;;;;;;;1.90;0.60;;;;;;;12.23;100.00;99870.93;106019;1254;66814;-51
2024/04/26 01:53:08;;;;;;;3.10;0.60;;;;;;;12.22;100.00;99871.71;106040;1260;72120;-53
2024/04/26 01:55:35;;;;;;;3.10;0.80;;;;;;;12.20;100.00;99870.92;106743;1254;61366;-53
2024/04/26 01:58:02;;;;;;;0.60;0.60;;;;;;;12.20;100.00;99872.02;106417;1254;61230;-53
2024/04/26 02:00:29;;;;;;;0.60;0.60;;;;;;;12.21;100.00;99874.67;106091;1261;74769;-54
2024/04/26 02:02:56;;;;;;;2.30;0.70;;;;;;;12.21;100.00;99874.45;106075;1255;65492;-53
2024/04/26 02:05:23;;;;;;;0.90;0.60;;;;;;;12.21;100.00;99880.41;106476;1255;73121;-53
2024/04/26 02:07:50;;;;;;;4.20;0.50;;;;;;;12.21;100.00;99883.30;106144;1259;61833;-53
2024/04/26 02:10:17;;;;;;;2.30;0.60;;;;;;;12.24;100.00;99879.04;106173;1257;61028;-53
2024/04/26 02:12:46;;;;;;;0.60;0.60;;;;;;;12.25;100.00;99894.77;106115;1258;74626;-51
2024/04/26 02:15:13;;;;;;;0.60;0.60;;;;;;;12.25;100.00;99910.80;106410;1258;66960;-51
2024/04/26 02:17:40;;;;;;;1.30;0.60;;;;;;;12.23;100.00;99901.90;106006;1255;71280;-55
2024/04/26 02:20:07;;;;;;;1.80;0.70;;;;;;;12.22;100.00;99904.13;106076;1257;61300;-51
2024/04/26 02:22:35;;;;;;;2.30;0.60;;;;;;;12.22;100.00;99905.73;107448;1258;61298;-53
2024/04/26 02:25:01;;;;;;;0.60;0.60;;;;;;;12.21;100.00;99907.95;106022;1257;75061;-51
2024/04/26 02:27:28;;;;;;;1.20;0.60;;;;;;;12.20;100.00;99902.23;106075;1257;67475;-54
2024/04/26 02:29:56;;;;;;;1.50;0.60;;;;;;;12.20;100.00;99900.24;105965;1267;71870;-55
2024/04/26 02:32:23;;;;;;;0.60;0.60;;;;;;;12.21;100.00;99899.10;106350;1269;62042;-56
2024/04/26 02:34:50;;;;;;;0.80;0.60;;;;;;;12.20;100.00;99910.70;106168;1254;61270;-56
2024/04/26 02:37:17;;;;;;;0.60;0.60;;;;;;;12.19;100.00;99919.58;106383;1254;73765;-52
2024/04/26 02:39:44;;;;;;;0.90;0.60;;;;;;;12.18;100.00;99914.19;106065;1257;65784;-54
2024/04/26 02:42:11;;;;;;;0.50;0.50;;;;;;;12.19;100.00;99914.36;105953;1260;73128;-55
2024/04/26 02:44:38;;;;;;;1.50;0.50;;;;;;;12.18;100.00;99908.78;106067;1264;61820;-53
2024/04/26 02:47:04;;;;;;;0.70;0.50;;;;;;;12.19;100.00;99920.46;106114;1258;61577;-54
2024/04/26 02:49:32;;;;;;;0.40;0.40;;;;;;;12.17;100.00;99929.52;109123;1254;73297;-53
2024/04/26 02:51:58;;;;;;;0.40;0.40;;;;;;;12.16;100.00;99933.77;109142;1254;66960;-52
2024/04/26 02:54:25;;;;;;;3.40;0.40;;;;;;;12.16;100.00;99936.66;109134;1254;71088;-54
2024/04/26 02:56:52;;;;;;;0.50;0.40;;;;;;;12.16;100.00;99942.55;109152;1254;60601;-51
2024/04/26 02:59:18;;;;;;;0.50;0.40;;;;;;;12.19;100.00;99948.89;109052;1254;59133;-51
2024/04/26 03:01:46;;;;;;;0.20;0.20;;;;;;;12.20;100.00;99945.75;109023;1254;74954;-50
2024/04/26 03:04:13;;;;;;;0.60;0.30;;;;;;;12.20;100.00;99945.23;109263;1254;66844;-51
2024/04/26 03:06:40;;;;;;;0.30;0.30;;;;;;;12.19;100.00;99942.58;109117;1254;72962;-53
2024/04/26 03:09:07;;;;;;;1.50;0.20;;;;;;;12.18;100.00;99935.62;109195;1254;61836;-53
2024/04/26 03:11:34;;;;;;;0.30;0.30;;;;;;;12.16;100.00;99936.80;109188;1253;62063;-53
2024/04/26 03:14:04;;;;;;;0.30;0.30;;;;;;;12.18;100.00;99946.06;109139;1254;74441;-53
2024/04/26 03:16:31;;;;;;;0.20;0.20;;;;;;;12.18;100.00;99950.89;109219;1254;66728;-50
2024/04/26 03:18:57;;;;;;;0.20;0.20;;;;;;;12.18;100.00;99943.16;108973;1254;71484;-53
2024/04/26 03:21:24;;;;;;;0.90;0.20;;;;;;;12.17;100.00;99939.10;109095;1254;60806;-52
2024/04/26 03:23:52;;;;;;;2.60;0.20;;;;;;;12.13;100.00;99938.92;109180;1253;59306;-53
2024/04/26 03:30:36;;;;;;;0.20;0.20;;;;;;;12.03;100.00;99966.41;106314;1257;65871;-51
2024/04/26 03:33:03;;;;;;;0.20;0.20;;;;;;;11.99;100.00;99960.68;106037;1254;73022;-53
2024/04/26 03:35:30;;;;;;;2.30;0.30;;;;;;;11.97;100.00;99965.48;107767;1254;60483;-51
2024/04/26 03:38:15;;;;;;;0.20;0.20;;;;;;;11.95;100.00;99970.45;106179;1254;61238;-52
2024/04/26 03:41:00;;;;;;;0.20;0.20;;;;;;;11.90;100.00;99973.00;105925;1257;74783;-52
2024/04/26 03:43:27;;;;;;;0.30;0.20;;;;;;;11.87;100.00;99977.11;105993;1258;66913;-53
2024/04/26 03:45:54;;;;;;;0.10;0.10;;;;;;;11.84;100.00;99981.96;106097;1254;72647;-53
2024/04/26 03:48:20;;;;;;;0.10;0.10;;;;;;;11.77;100.00;99979.77;106020;1263;61161;-53
2024/04/26 03:50:51;;;;;;;2.20;0.20;;;;;;;11.74;100.00;99977.55;106244;1257;60189;-53
2024/04/26 03:53:17;;;;;;;0.20;0.20;;;;;;;11.73;100.00;99976.89;106048;1257;74576;-55
2024/04/26 03:55:44;;;;;;;1.20;0.20;;;;;;;11.69;100.00;99978.36;106134;1254;69222;-55
2024/04/26 03:58:11;;;;;;;3.80;0.30;;;;;;;11.64;100.00;99978.59;106039;1257;72428;-52
2024/04/26 04:00:38;;;;;;;0.40;0.20;;;;;;;11.61;100.00;99977.31;106200;1257;61745;-54
2024/04/26 04:03:05;;;;;;;0.30;0.30;;;;;;;11.60;100.00;99983.48;106111;1257;61334;-54
2024/04/26 04:05:32;;;;;;;1.60;0.30;;;;;;;11.57;100.00;99983.99;106025;1257;74290;-53
2024/04/26 04:07:58;;;;;;;0.50;0.20;;;;;;;11.50;100.00;99983.98;106348;1257;67988;-52
2024/04/26 04:10:25;;;;;;;0.30;0.30;;;;;;;11.41;100.00;99988.01;106100;1257;72501;-52
2024/04/26 04:12:52;;;;;;;2.50;0.30;;;;;;;11.34;100.00;99987.58;106240;1258;61292;-53
2024/04/26 04:15:19;;;;;;;0.20;0.20;;;;;;;11.32;100.00;99988.79;107649;1254;61287;-50
2024/04/26 04:17:46;;;;;;;0.30;0.30;;;;;;;11.28;100.00;99985.01;106048;1258;73215;-52
2024/04/26 04:20:13;;;;;;;0.70;0.30;;;;;;;11.25;100.00;99998.95;105969;1263;66953;-52
2024/04/26 04:22:40;;;;;;;1.80;0.40;;;;;;;11.23;100.00;100003.77;106346;1257;72575;-53
2024/04/26 04:25:07;;;;;;;0.30;0.30;;;;;;;11.19;100.00;100006.98;106172;1257;61719;-55
2024/04/26 04:27:33;;;;;;;0.30;0.30;;;;;;;11.13;100.00;100008.52;106090;1254;62127;-55
2024/04/26 04:30:00;;;;;;;2.40;0.30;;;;;;;11.10;100.00;100007.23;106159;1258;74547;-55
2024/04/26 04:32:27;;;;;;;0.60;0.40;;;;;;;11.07;100.00;100005.98;105968;1269;69216;-55
2024/04/26 04:34:54;;;;;;;0.30;0.30;;;;;;;11.03;100.00;100003.29;106061;1258;72553;-57
2024/04/26 04:37:21;;;;;;;0.70;0.30;;;;;;;11.00;100.00;100001.94;106121;1257;61743;-55
2024/04/26 04:39:48;;;;;;;1.70;0.30;;;;;;;10.98;100.00;100004.52;105896;1259;60832;-54
2024/04/26 04:42:15;;;;;;;0.30;0.30;;;;;;;10.94;100.00;100004.55;106141;1254;74547;-55
2024/04/26 04:44:41;;;;;;;0.30;0.30;;;;;;;10.90;100.00;100005.65;105996;1257;67544;-55
2024/04/26 04:47:08;;;;;;;1.00;0.30;;;;;;;10.88;100.00;100006.85;105957;1269;72255;-55
2024/04/26 04:49:35;;;;;;;0.40;0.30;;;;;;;10.88;100.00;100010.59;105975;1258;61820;-56
2024/04/26 04:52:02;;;;;;;0.40;0.40;;;;;;;10.91;100.00;100015.47;106081;1260;61339;-55
2024/04/26 04:54:29;;;;;;;0.40;0.30;;;;;;;10.93;100.00;100021.30;105952;1254;75691;-55
2024/04/26 04:56:55;;;;;;;1.40;0.30;;;;;;;10.94;100.00;100022.89;106072;1269;65336;-54
2024/04/26 04:59:22;;;;;;;0.30;0.20;;;;;;;10.95;100.00;100021.79;105979;1269;72108;-55
2024/04/26 05:01:49;;;;;;;0.40;0.30;;;;;;;10.96;100.00;100029.29;106065;1257;61230;-56
2024/04/26 05:04:16;;;;;;;2.20;0.30;;;;;;;10.96;100.00;100032.30;105908;1268;61988;-55
2024/04/26 05:06:43;;;;;;;0.40;0.30;;;;;;;10.98;100.00;100035.98;105923;1260;74865;-56
2024/04/26 05:09:10;;;;;;;0.30;0.30;;;;;;;10.97;100.00;100039.27;106133;1258;67176;-56
2024/04/26 05:11:37;;;;;;;0.50;0.30;;;;;;;10.96;100.00;100045.78;106707;1254;72546;-54
2024/04/26 05:14:04;;;;;;;0.80;0.30;;;;;;;10.97;100.00;100052.04;105997;1253;61256;-54
2024/04/26 05:16:31;;;;;;;0.80;0.30;;;;;;;10.98;100.00;100058.79;106095;1258;61209;-54
2024/04/26 05:18:59;;;;;;;0.30;0.30;;;;;;;10.94;100.00;100057.73;105987;1257;75378;-55
2024/04/26 05:21:26;;;;;;;1.30;0.40;;;;;;;10.90;100.00;100056.64;107939;1253;65050;-54
2024/04/26 05:23:53;;;;;;;0.20;0.20;;;;;;;10.91;100.00;100065.04;106138;1268;72756;-55
2024/04/26 05:26:19;;;;;;;0.50;0.30;;;;;;;10.91;100.00;100067.71;106116;1257;61349;-55
2024/04/26 05:28:46;;;;;;;0.30;0.30;;;;;;;10.89;100.00;100067.98;106099;1254;60929;-55
2024/04/26 05:31:13;;;;;;;0.30;0.30;;;;;;;10.85;100.00;100067.27;106182;1254;73692;-56
2024/04/26 05:33:40;;;;;;;0.40;0.30;;;;;;;10.83;100.00;100071.50;106146;1255;67532;-56
2024/04/26 05:36:07;;;;;;;0.20;0.20;;;;;;;10.84;100.00;100076.85;105846;1254;72617;-55
2024/04/26 05:38:34;;;;;;;0.30;0.30;;;;;;;10.83;100.00;100074.36;109308;1253;60713;-54
2024/04/26 05:41:01;;;;;;;3.10;0.80;;;;;;;10.84;100.00;100078.27;109205;1254;59047;-54
2024/04/26 05:43:28;;;;;;;1.60;0.30;;;;;;;10.86;100.00;100079.09;109031;1253;156585;-54
2024/04/26 05:46:44;;;;;;;0.90;0.20;;;;;;;10.88;100.00;100166.10;102640;1296;601562;-56
2024/04/26 05:49:11;;;;;;;1.20;0.30;;;;;;;10.84;100.00;100187.98;108322;1269;57650;-55
2024/04/26 05:51:38;;;;;;;0.70;0.20;;;;;;;10.82;100.00;100174.23;108469;1269;59914;-54
2024/04/26 05:54:05;;;;;;;1.80;0.20;;;;;;;10.82;100.00;100171.19;108282;1266;72541;-54
2024/04/26 05:56:32;;;;;;;0.40;0.30;;;;;;;10.82;100.00;100168.50;108409;1266;66911;-55
2024/04/26 05:58:58;;;;;;;0.30;0.20;;;;;;;10.79;100.00;100159.10;108325;1266;73448;-55
2024/04/26 06:01:25;;;;;;;0.20;0.20;;;;;;;10.81;100.00;100157.92;107064;1268;184809;-54
2024/04/26 06:03:52;;;;;;;0.30;0.20;;;;;;;10.85;100.00;100149.68;105362;1264;60018;-54
2024/04/26 06:06:19;;;;;;;2.30;0.40;;;;;;;10.90;100.00;100154.14;108452;1266;72823;-55
2024/04/26 06:08:46;;;;;;;0.30;0.20;;;;;;;10.96;100.00;100155.50;108597;1267;65867;-55
2024/04/26 06:11:15;;;;;;;0.20;0.20;;;;;;;11.00;100.00;100161.23;108447;1264;73995;-54
2024/04/26 06:13:42;;;;;;;0.20;0.20;;;;;;;11.05;100.00;100167.69;108605;1264;60887;-54
2024/04/26 06:16:09;;;;;;;2.60;0.30;;;;;;;11.09;100.00;100173.04;108470;1264;61024;-55
2024/04/26 06:18:36;;;;;;;0.30;0.30;;;;;;;11.11;100.00;100176.23;108471;1263;73642;-53
2024/04/26 06:21:03;;;;;;;0.20;0.20;;;;;;;11.08;100.00;100167.36;108504;1263;67186;-55
2024/04/26 06:23:30;;;;;;;0.40;0.20;;;;;;;11.07;100.00;100168.84;108506;1264;71306;-56
2024/04/26 06:25:57;;;;;;;1.80;0.20;;;;;;;11.05;100.00;100171.63;105940;1268;62007;-55
2024/04/26 06:28:23;;;;;;;2.10;0.20;;;;;;;11.02;100.00;100161.16;105382;1264;62809;-55
2024/04/26 06:30:50;;;;;;;0.50;0.20;;;;;;;11.02;100.00;100161.54;105309;1268;73966;-53
2024/04/26 06:33:17;;;;;;;0.30;0.20;;;;;;;11.01;100.00;100160.31;105287;1264;67184;-56
2024/04/26 06:35:45;;;;;;;0.20;0.20;;;;;;;11.04;100.00;100166.64;106139;1263;72320;-55
2024/04/26 06:38:14;;;;;;;0.20;0.20;;;;;;;11.11;100.00;100172.27;106043;1269;61521;-53
2024/04/26 06:40:41;;;;;;;2.10;0.30;;;;;;;11.14;100.00;100176.80;105820;1269;60546;-56
2024/04/26 06:43:07;;;;;;;0.40;0.20;;;;;;;11.15;100.00;100177.45;105476;1269;74556;-54
2024/04/26 06:45:34;;;;;;;0.80;0.20;;;;;;;11.18;100.00;100180.91;105451;1269;66959;-55
2024/04/26 06:48:01;;;;;;;0.70;0.20;;;;;;;11.22;100.00;100183.27;105331;1279;72189;-55
2024/04/26 06:50:28;;;;;;;0.80;0.20;;;;;;;11.25;100.00;100184.35;105420;1276;60717;-56
2024/04/26 06:52:56;;;;;;;0.20;0.20;;;;;;;11.29;100.00;100185.84;105536;1277;60225;-55
2024/04/26 06:55:23;;;;;;;0.20;0.10;;;;;;;11.31;100.00;100184.48;105307;1270;73811;-55
2024/04/26 06:57:50;;;;;;;0.20;0.10;;;;;;;11.33;100.00;100180.77;105294;1269;66329;-55
2024/04/26 07:00:16;;;;;;;0.20;0.20;;;;;;;11.36;100.00;100180.33;105512;1269;72446;-56
2024/04/26 07:02:43;;;;;;;0.10;0.10;;;;;;;11.38;100.00;100189.39;105581;1265;63296;-56
2024/04/26 07:05:11;;;;;;;0.10;0.10;;;;;;;11.41;100.00;100202.73;105332;1264;61340;-55
2024/04/26 07:07:38;;;;;;;0.10;0.10;;;;;;;11.43;100.00;100206.21;105831;1261;72755;-54
2024/04/26 07:10:05;;;;;;;0.30;0.10;;;;;;;11.46;100.00;100208.98;105522;1262;66840;-54
2024/04/26 07:12:33;;;;;;;0.10;0.10;;;;;;;11.48;100.00;100209.08;105604;1266;72276;-56
2024/04/26 07:14:59;;;;;;;0.30;0.20;;;;;;;11.50;100.00;100206.98;105400;1270;62746;-54
2024/04/26 07:17:26;;;;;;;1.40;0.30;;;;;;;11.51;100.00;100209.10;105454;1283;60577;-54
2024/04/26 07:19:53;;;;;;;0.10;0.10;;;;;;;11.51;100.00;100217.55;105336;1266;72622;-56
2024/04/26 07:22:20;;;;;;;1.00;0.50;;;;;;;11.50;100.00;100219.02;105540;1266;66925;-56
2024/04/26 07:24:47;;;;;;;0.90;0.20;;;;;;;11.48;100.00;100216.41;105380;1267;73602;-54
2024/04/26 07:27:14;;;;;;;0.20;0.20;;;;;;;11.49;100.00;100216.36;105651;1266;61717;-56
2024/04/26 07:29:41;;;;;;;1.60;0.20;;;;;;;11.50;100.00;100216.17;105498;1261;61333;-55
2024/04/26 07:32:08;;;;;;;0.20;0.20;;;;;;;11.51;100.00;100223.65;105482;1274;74223;-56
2024/04/26 07:34:35;;;;;;;1.10;0.10;;;;;;;11.55;100.00;100236.26;105544;1261;66860;-56
2024/04/26 07:37:02;;;;;;;0.60;0.20;;;;;;;11.58;100.00;100241.86;105536;1266;72549;-56
2024/04/26 07:39:29;;;;;;;0.10;0.10;;;;;;;11.59;100.00;100240.19;105576;1260;61342;-56
2024/04/26 07:41:56;;;;;;;0.30;0.20;;;;;;;11.62;100.00;100235.58;106338;1266;60427;-54
2024/04/26 07:44:23;;;;;;;0.60;0.30;;;;;;;11.67;100.00;100238.21;105611;1266;73916;-55
2024/04/26 07:46:50;;;;;;;0.70;0.20;;;;;;;11.68;100.00;100242.81;105420;1265;67728;-56
2024/04/26 07:49:16;;;;;;;0.20;0.20;;;;;;;11.71;100.00;100245.06;105620;1264;72278;-55
2024/04/26 07:51:44;;;;;;;0.60;0.10;;;;;;;11.74;100.00;100243.66;105458;1274;61330;-55
2024/04/26 07:54:11;;;;;;;1.90;0.10;;;;;;;11.77;100.00;100250.38;105493;1274;60241;-56
2024/04/26 07:56:38;;;;;;;0.10;0.10;;;;;;;11.82;100.00;100258.04;105532;1267;72861;-55
2024/04/26 07:59:05;;;;;;;0.40;0.10;;;;;;;11.88;100.00;100263.38;107356;1266;67580;-56
2024/04/26 08:01:32;;;;;;;1.00;0.10;;;;;;;11.96;100.00;100271.95;105418;1266;72590;-55
2024/04/26 08:03:59;;;;;;;0.20;0.20;;;;;;;12.07;100.00;100289.66;105467;1266;60820;-54
2024/04/26 08:06:26;;;;;;;5.80;0.20;;;;;;;12.18;100.00;100302.81;105430;1270;61077;-56
2024/04/26 08:08:53;;;;;;;0.10;0.10;;;;;;;12.29;100.00;100305.34;105617;1261;74303;-55
2024/04/26 08:11:20;;;;;;;0.20;0.20;;;;;;;12.40;100.00;100302.67;108807;1258;67555;-55
2024/04/26 08:13:47;;;;;;;0.90;0.20;;;;;;;12.45;100.00;100298.45;106089;1261;72249;-55
2024/04/26 08:16:15;;;;;;;0.30;0.20;;;;;;;12.49;100.00;100305.13;105767;1264;60506;-56
2024/04/26 08:18:42;;;;;;;0.20;0.20;;;;;;;12.51;100.00;100314.91;106468;1263;60235;-55
2024/04/26 08:21:08;;;;;;;0.20;0.10;;;;;;;12.51;100.00;100322.11;105779;1263;73936;-56
2024/04/26 08:23:36;;;;;;;0.10;0.10;;;;;;;12.51;100.00;100326.64;105755;1263;67345;-55
2024/04/26 08:26:03;;;;;;;0.20;0.20;;;;;;;12.53;100.00;100331.39;105702;1261;72311;-54
2024/04/26 08:28:31;;;;;;;2.30;0.10;;;;;;;12.61;100.00;100340.38;106502;1256;63774;-55
2024/04/26 08:30:58;;;;;;;0.30;0.20;;;;;;;12.69;100.00;100351.70;109007;1257;59507;-56
2024/04/26 08:33:25;;;;;;;1.70;0.20;;;;;;;12.72;100.00;100357.14;108860;1256;73738;-56
2024/04/26 08:35:52;;;;;;;2.10;0.20;;;;;;;12.76;100.00;100364.89;108898;1257;65926;-55
2024/04/26 08:38:20;;;;;;;0.20;0.10;;;;;;;12.79;100.00;100380.36;108964;1256;71563;-57
2024/04/26 08:40:47;;;;;;;0.20;0.10;;;;;;;12.83;100.00;100389.40;108844;1257;61180;-56
2024/04/26 08:43:13;;;;;;;0.80;0.20;;;;;;;12.83;100.00;100399.27;108849;1256;58842;-53
2024/04/26 08:45:40;;;;;;;0.40;0.30;;;;;;;12.82;100.00;100404.03;108782;1257;73665;-52
2024/04/26 08:48:08;;;;;;;0.60;0.20;;;;;;;12.80;100.00;100409.89;108891;1257;66525;-53
2024/04/26 08:50:35;;;;;;;0.40;0.10;;;;;;;12.79;100.00;100413.53;108887;1257;72531;-53
2024/04/26 08:53:06;;;;;;;1.40;0.20;;;;;;;12.79;100.00;100413.71;108827;1257;58836;-53
2024/04/26 08:55:34;;;;;;;0.70;0.20;;;;;;;12.80;100.00;100415.27;108875;1257;59089;-53
2024/04/26 08:58:02;;;;;;;0.20;0.20;;;;;;;12.85;100.00;100424.61;108976;1257;73539;-56
2024/04/26 09:00:33;;;;;;;0.30;0.20;;;;;;;12.89;100.00;100428.38;108672;1258;66092;-52
2024/04/26 09:03:00;;;;;;;0.50;0.10;;;;;;;12.89;100.00;100427.27;108967;1257;71410;-55
2024/04/26 09:05:29;;;;;;;0.10;0.10;;;;;;;12.90;100.00;100428.88;108813;1258;59319;-53
2024/04/26 09:07:58;;;;;;;0.20;0.10;;;;;;;12.92;100.00;100431.33;108951;1257;58299;-53
2024/04/26 09:10:25;;;;;;;0.20;0.10;;;;;;;12.96;100.00;100430.21;108919;1256;73137;-53
2024/04/26 09:12:52;;;;;;;0.50;0.10;;;;;;;13.01;100.00;100425.48;108891;1257;66362;-54
2024/04/26 09:15:30;;;;;;;0.10;0.10;;;;;;;13.06;100.00;100425.39;108722;1256;70761;-54
2024/04/26 09:17:57;;;;;;;0.20;0.10;;;;;;;13.14;100.00;100429.01;106028;1260;60534;-55
2024/04/26 09:20:25;;;;;;;0.20;0.10;;;;;;;13.23;100.00;100440.09;107479;1258;60518;-55
2024/04/26 09:22:52;;;;;;;0.60;0.20;;;;;;;13.33;100.00;100449.58;105824;1260;73327;-54
2024/04/26 09:25:18;;;;;;;2.90;0.20;;;;;;;13.38;100.00;100461.53;105846;1269;67934;-54
2024/04/26 09:27:45;;;;;;;0.60;0.10;;;;;;;13.39;100.00;100464.76;105786;1261;73505;-53
2024/04/26 09:30:12;;;;;;;0.30;0.20;;;;;;;13.35;100.00;100466.20;105815;1262;60501;-56
2024/04/26 09:32:40;;;;;;;0.50;0.20;;;;;;;13.32;100.00;100473.40;105767;1260;61321;-55
2024/04/26 09:35:21;;;;;;;0.10;0.10;;;;;;;13.33;100.00;100480.58;105622;1276;73672;-55
2024/04/26 09:37:49;;;;;;;0.30;0.10;;;;;;;13.31;100.00;100488.73;105791;1260;67425;-56
2024/04/26 09:40:16;;;;;;;0.20;0.20;;;;;;;13.28;100.00;100486.56;105964;1263;73487;-55
2024/04/26 09:42:44;;;;;;;0.20;0.10;;;;;;;13.23;100.00;100478.84;105794;1262;60895;-56
2024/04/26 09:45:11;;;;;;;0.30;0.30;;;;;;;13.21;100.00;100478.05;106248;1260;60508;-55
2024/04/26 09:47:38;;;;;;;0.10;0.10;;;;;;;13.22;100.00;100480.17;105723;1264;73029;-56
2024/04/26 09:50:06;;;;;;;0.20;0.20;;;;;;;13.23;100.00;100472.01;105758;1262;66925;-55
2024/04/26 09:52:32;;;;;;;1.70;0.20;;;;;;;13.24;100.00;100468.17;105633;1264;72596;-56
2024/04/26 09:55:00;;;;;;;0.30;0.20;;;;;;;13.28;100.00;100464.39;105830;1262;61374;-55
2024/04/26 09:57:27;;;;;;;2.80;0.10;;;;;;;13.33;100.00;100474.08;105844;1261;61230;-55
2024/04/26 09:59:54;;;;;;;1.70;0.10;;;;;;;13.38;100.00;100480.13;105829;1260;74442;-55
2024/04/26 10:02:21;;;;;;;0.30;0.20;;;;;;;13.44;100.00;100478.04;106035;1257;66979;-55
2024/04/26 10:04:52;;;;;;;0.20;0.20;;;;;;;13.50;100.00;100481.14;105806;1262;72530;-55
2024/04/26 10:07:22;;;;;;;0.20;0.20;;;;;;;13.59;100.00;100486.14;105720;1276;61332;-56
2024/04/26 10:09:54;;;;;;;0.20;0.10;;;;;;;13.66;100.00;100480.56;106126;1261;61279;-57
2024/04/26 10:12:25;;;;;;;0.10;0.10;;;;;;;13.70;100.00;100474.02;106126;1257;75215;-56
2024/04/26 10:14:52;;;;;;;0.10;0.10;;;;;;;13.72;100.00;100481.66;105887;1263;66656;-56
2024/04/26 10:17:20;;;;;;;1.80;0.20;;;;;;;13.73;100.00;100488.66;105638;1264;72393;-57
2024/04/26 10:19:48;;;;;;;1.00;0.10;;;;;;;13.75;100.00;100497.60;105843;1260;61303;-55
2024/04/26 10:22:15;;;;;;;3.70;0.30;;;;;;;13.80;100.00;100502.40;105839;1258;62181;-55
2024/04/26 10:24:52;;;;;;;0.50;0.20;;;;;;;13.84;100.00;100499.48;105701;1258;73630;-53
2024/04/26 10:27:27;;;;;;;0.10;0.10;;;;;;;13.92;100.00;100499.64;105960;1257;67955;-54
2024/04/26 10:29:54;;;;;;;1.00;0.20;;;;;;;13.98;100.00;100501.29;106142;1260;74933;-54
2024/04/26 10:32:21;;;;;;;0.40;0.10;;;;;;;14.02;100.00;100509.56;105991;1260;61397;-55
2024/04/26 10:34:48;;;;;;;0.20;0.20;;;;;;;14.06;100.00;100511.53;106218;1260;62270;-56
2024/04/26 10:37:15;;;;;;;0.10;0.10;;;;;;;14.06;100.00;100516.24;105867;1260;74338;-55
2024/04/26 10:39:44;;;;;;;2.20;0.10;;;;;;;14.03;100.00;100523.08;105892;1267;67157;-54
2024/04/26 10:42:12;;;;;;;0.60;0.10;;;;;;;14.01;100.00;100528.02;105746;1260;72987;-54
2024/04/26 10:44:39;;;;;;;0.10;0.10;;;;;;;14.01;100.00;100527.50;105720;1262;61381;-56
2024/04/26 10:47:06;;;;;;;0.10;0.10;;;;;;;13.99;100.00;100524.33;105605;1258;61333;-56
2024/04/26 10:49:33;;;;;;;0.60;0.10;;;;;;;13.97;100.00;100524.80;105658;1273;73316;-55
2024/04/26 10:52:01;;;;;;;0.10;0.10;;;;;;;13.97;100.00;100526.42;105848;1260;67243;-55
2024/04/26 10:54:29;;;;;;;0.10;0.00;;;;;;;14.03;100.00;100526.33;105719;1260;72339;-55
2024/04/26 10:56:56;;;;;;;0.50;0.10;;;;;;;14.12;100.00;100524.23;106026;1273;61204;-56
2024/04/26 10:59:25;;;;;;;0.20;0.10;;;;;;;14.21;100.00;100535.71;105932;1256;61263;-56
2024/04/26 11:01:55;;;;;;;1.80;0.10;;;;;;;14.28;100.00;100542.04;105764;1263;74431;-54
2024/04/26 11:04:21;;;;;;;0.70;0.10;;;;;;;14.33;100.00;100546.60;106066;1257;67696;-54
2024/04/26 11:06:51;;;;;;;0.20;0.10;;;;;;;14.40;100.00;100549.17;105744;1257;71497;-55
2024/04/26 11:09:19;;;;;;;1.50;0.10;;;;;;;14.45;100.00;100556.36;106269;1257;62165;-54
2024/04/26 11:11:54;;;;;;;0.50;0.10;;;;;;;14.45;100.00;100557.58;106056;1259;61295;-54
2024/04/26 11:14:23;;;;;;;1.10;0.20;;;;;;;14.40;100.00;100567.06;106449;1257;74872;-56
2024/04/26 11:16:50;;;;;;;5.60;0.10;;;;;;;14.35;100.00;100567.27;105738;1260;65928;-55